sensor_id;sensor_type;location;lat;lon;timestamp;pressure;altitude;pressure_sealevel;temperature;humidity
79415;BME280;68864;44.972;19.612;2023-12-14T00:02:25;99594.84;;;10.28;96.55
79415;BME280;68864;44.972;19.612;2023-12-14T00:04:52;99605.19;;;10.31;96.53
79415;BME280;68864;44.972;19.612;2023-12-14T00:07:20;99607.59;;;10.29;96.44
79415;BME280;68864;44.972;19.612;2023-12-14T00:09:47;99606.78;;;10.29;96.50
79415;BME280;68864;44.972;19.612;2023-12-14T00:12:14;99609.16;;;10.30;96.62
79415;BME280;68864;44.972;19.612;2023-12-14T00:14:41;99610.41;;;10.33;96.67
79415;BME280;68864;44.972;19.612;2023-12-14T00:17:08;99602.03;;;10.33;96.82
79415;BME280;68864;44.972;19.612;2023-12-14T00:19:35;99606.00;;;10.32;96.86
79415;BME280;68864;44.972;19.612;2023-12-14T00:22:02;99602.09;;;10.37;96.71
79415;BME280;68864;44.972;19.612;2023-12-14T00:25:16;99612.81;;;10.34;97.02
79415;BME280;68864;44.972;19.612;2023-12-14T00:28:04;99609.22;;;10.38;96.86
79415;BME280;68864;44.972;19.612;2023-12-14T00:31:01;99615.22;;;10.36;96.97
79415;BME280;68864;44.972;19.612;2023-12-14T00:33:28;99608.41;;;10.33;96.93
79415;BME280;68864;44.972;19.612;2023-12-14T00:35:55;99607.59;;;10.29;97.57
79415;BME280;68864;44.972;19.612;2023-12-14T00:38:22;99585.84;;;10.02;98.15
79415;BME280;68864;44.972;19.612;2023-12-14T00:40:50;99599.31;;;9.96;99.40
79415;BME280;68864;44.972;19.612;2023-12-14T00:43:17;99579.81;;;9.96;99.26
79415;BME280;68864;44.972;19.612;2023-12-14T00:45:44;99587.16;;;9.74;100.00
79415;BME280;68864;44.972;19.612;2023-12-14T00:48:11;99590.88;;;9.52;100.00
79415;BME280;68864;44.972;19.612;2023-12-14T00:50:38;99581.34;;;9.16;100.00
79415;BME280;68864;44.972;19.612;2023-12-14T00:53:05;99571.22;;;9.01;100.00
79415;BME280;68864;44.972;19.612;2023-12-14T00:56:04;99564.81;;;8.97;100.00
79415;BME280;68864;44.972;19.612;2023-12-14T01:01:22;99545.28;;;8.90;100.00
79415;BME280;68864;44.972;19.612;2023-12-14T01:03:49;99542.53;;;8.93;100.00
79415;BME280;68864;44.972;19.612;2023-12-14T01:06:16;99526.53;;;8.83;100.00
79415;BME280;68864;44.972;19.612;2023-12-14T01:08:43;99554.25;;;8.80;100.00
79415;BME280;68864;44.972;19.612;2023-12-14T01:11:11;99554.53;;;8.71;100.00
79415;BME280;68864;44.972;19.612;2023-12-14T01:13:38;99561.19;;;8.63;100.00
79415;BME280;68864;44.972;19.612;2023-12-14T01:16:06;99548.72;;;8.53;100.00
79415;BME280;68864;44.972;19.612;2023-12-14T01:18:32;99554.13;;;8.43;100.00
79415;BME280;68864;44.972;19.612;2023-12-14T01:20:59;99529.19;;;8.46;100.00
79415;BME280;68864;44.972;19.612;2023-12-14T01:23:26;99538.69;;;8.45;100.00
79415;BME280;68864;44.972;19.612;2023-12-14T01:25:53;99556.84;;;8.39;100.00
79415;BME280;68864;44.972;19.612;2023-12-14T01:28:21;99573.63;;;8.46;100.00
79415;BME280;68864;44.972;19.612;2023-12-14T01:30:48;99595.22;;;8.56;100.00
79415;BME280;68864;44.972;19.612;2023-12-14T01:33:15;99616.72;;;8.63;100.00
79415;BME280;68864;44.972;19.612;2023-12-14T01:35:42;99622.88;;;8.75;100.00
79415;BME280;68864;44.972;19.612;2023-12-14T01:38:09;99579.41;;;8.90;100.00
79415;BME280;68864;44.972;19.612;2023-12-14T01:40:36;99552.34;;;8.84;100.00
79415;BME280;68864;44.972;19.612;2023-12-14T01:43:08;99529.31;;;8.83;100.00
79415;BME280;68864;44.972;19.612;2023-12-14T01:45:37;99519.31;;;8.78;100.00
79415;BME280;68864;44.972;19.612;2023-12-14T01:48:04;99532.84;;;8.80;100.00
79415;BME280;68864;44.972;19.612;2023-12-14T01:50:31;99524.78;;;8.71;100.00
79415;BME280;68864;44.972;19.612;2023-12-14T01:52:58;99533.06;;;8.68;100.00
79415;BME280;68864;44.972;19.612;2023-12-14T01:55:25;99565.59;;;8.67;100.00
79415;BME280;68864;44.972;19.612;2023-12-14T01:57:52;99591.44;;;8.71;100.00
79415;BME280;68864;44.972;19.612;2023-12-14T02:00:27;99589.06;;;8.70;100.00
79415;BME280;68864;44.972;19.612;2023-12-14T02:03:01;99571.63;;;8.73;100.00
79415;BME280;68864;44.972;19.612;2023-12-14T02:05:28;99606.19;;;8.75;100.00
79415;BME280;68864;44.972;19.612;2023-12-14T02:07:54;99596.00;;;8.83;100.00
79415;BME280;68864;44.972;19.612;2023-12-14T02:10:22;99577.03;;;8.92;100.00
79415;BME280;68864;44.972;19.612;2023-12-14T02:12:51;99582.22;;;8.94;100.00
79415;BME280;68864;44.972;19.612;2023-12-14T02:15:18;99594.53;;;8.93;100.00
79415;BME280;68864;44.972;19.612;2023-12-14T02:17:45;99588.16;;;8.92;100.00
79415;BME280;68864;44.972;19.612;2023-12-14T02:20:14;99566.50;;;9.05;100.00
79415;BME280;68864;44.972;19.612;2023-12-14T02:22:52;99596.59;;;9.29;100.00
79415;BME280;68864;44.972;19.612;2023-12-14T02:25:19;99597.72;;;9.25;100.00
79415;BME280;68864;44.972;19.612;2023-12-14T02:27:46;99605.25;;;9.57;100.00
79415;BME280;68864;44.972;19.612;2023-12-14T02:30:14;99596.75;;;9.77;100.00
79415;BME280;68864;44.972;19.612;2023-12-14T02:32:41;99600.72;;;9.42;100.00
79415;BME280;68864;44.972;19.612;2023-12-14T02:35:08;99605.97;;;9.51;100.00
79415;BME280;68864;44.972;19.612;2023-12-14T02:37:35;99598.84;;;9.53;100.00
79415;BME280;68864;44.972;19.612;2023-12-14T02:40:08;99599.66;;;9.54;100.00
79415;BME280;68864;44.972;19.612;2023-12-14T02:42:35;99626.31;;;9.58;100.00
79415;BME280;68864;44.972;19.612;2023-12-14T02:45:03;99645.00;;;9.58;100.00
79415;BME280;68864;44.972;19.612;2023-12-14T02:47:30;99656.66;;;9.71;100.00
79415;BME280;68864;44.972;19.612;2023-12-14T02:49:56;99638.00;;;9.71;100.00
79415;BME280;68864;44.972;19.612;2023-12-14T02:52:23;99647.38;;;9.93;100.00
79415;BME280;68864;44.972;19.612;2023-12-14T02:54:50;99648.75;;;9.73;100.00
79415;BME280;68864;44.972;19.612;2023-12-14T02:57:19;99663.13;;;9.78;100.00
79415;BME280;68864;44.972;19.612;2023-12-14T02:59:45;99674.72;;;9.84;100.00
79415;BME280;68864;44.972;19.612;2023-12-14T03:02:12;99670.75;;;9.85;100.00
79415;BME280;68864;44.972;19.612;2023-12-14T03:04:39;99656.50;;;9.90;100.00
79415;BME280;68864;44.972;19.612;2023-12-14T03:07:06;99641.31;;;9.84;100.00
79415;BME280;68864;44.972;19.612;2023-12-14T03:09:33;99656.81;;;9.81;100.00
79415;BME280;68864;44.972;19.612;2023-12-14T03:12:00;99661.56;;;9.81;100.00
79415;BME280;68864;44.972;19.612;2023-12-14T03:14:32;99652.38;;;9.77;100.00
79415;BME280;68864;44.972;19.612;2023-12-14T03:16:59;99648.75;;;9.73;100.00
79415;BME280;68864;44.972;19.612;2023-12-14T03:19:26;99645.97;;;9.73;100.00
79415;BME280;68864;44.972;19.612;2023-12-14T03:21:53;99649.19;;;9.78;100.00
79415;BME280;68864;44.972;19.612;2023-12-14T03:24:20;99635.63;;;9.73;100.00
79415;BME280;68864;44.972;19.612;2023-12-14T03:26:47;99626.84;;;9.68;100.00
79415;BME280;68864;44.972;19.612;2023-12-14T03:29:14;99627.63;;;9.68;100.00
79415;BME280;68864;44.972;19.612;2023-12-14T03:31:42;99629.63;;;9.68;100.00
79415;BME280;68864;44.972;19.612;2023-12-14T03:34:11;99621.66;;;9.66;100.00
79415;BME280;68864;44.972;19.612;2023-12-14T03:36:38;99610.16;;;9.68;100.00
79415;BME280;68864;44.972;19.612;2023-12-14T03:39:05;99607.00;;;9.69;100.00
79415;BME280;68864;44.972;19.612;2023-12-14T03:41:32;99601.34;;;9.62;100.00
79415;BME280;68864;44.972;19.612;2023-12-14T03:43:59;99608.44;;;9.56;100.00
79415;BME280;68864;44.972;19.612;2023-12-14T03:46:26;99628.28;;;9.54;100.00
79415;BME280;68864;44.972;19.612;2023-12-14T03:48:54;99654.88;;;9.52;100.00
79415;BME280;68864;44.972;19.612;2023-12-14T03:51:22;99671.28;;;9.64;100.00
79415;BME280;68864;44.972;19.612;2023-12-14T03:53:49;99702.38;;;9.70;100.00
79415;BME280;68864;44.972;19.612;2023-12-14T03:56:16;99690.84;;;9.71;100.00
79415;BME280;68864;44.972;19.612;2023-12-14T03:58:43;99682.84;;;9.66;100.00
79415;BME280;68864;44.972;19.612;2023-12-14T04:01:16;99686.09;;;9.72;100.00
79415;BME280;68864;44.972;19.612;2023-12-14T04:03:42;99667.78;;;9.71;100.00
79415;BME280;68864;44.972;19.612;2023-12-14T04:06:11;99643.91;;;9.66;100.00
79415;BME280;68864;44.972;19.612;2023-12-14T04:08:38;99624.44;;;9.66;100.00
79415;BME280;68864;44.972;19.612;2023-12-14T04:11:05;99591.81;;;9.63;100.00
79415;BME280;68864;44.972;19.612;2023-12-14T04:13:32;99596.59;;;9.63;100.00
79415;BME280;68864;44.972;19.612;2023-12-14T04:15:59;99601.28;;;9.58;100.00
79415;BME280;68864;44.972;19.612;2023-12-14T04:18:27;99625.94;;;9.56;100.00
79415;BME280;68864;44.972;19.612;2023-12-14T04:20:54;99650.56;;;9.58;100.00
79415;BME280;68864;44.972;19.612;2023-12-14T04:23:22;99657.78;;;9.63;100.00
79415;BME280;68864;44.972;19.612;2023-12-14T04:25:49;99649.03;;;9.64;100.00
79415;BME280;68864;44.972;19.612;2023-12-14T04:28:16;99632.34;;;9.64;100.00
79415;BME280;68864;44.972;19.612;2023-12-14T04:30:43;99619.97;;;9.58;100.00
79415;BME280;68864;44.972;19.612;2023-12-14T04:33:09;99616.31;;;9.50;100.00
79415;BME280;68864;44.972;19.612;2023-12-14T04:35:37;99616.59;;;9.42;100.00
79415;BME280;68864;44.972;19.612;2023-12-14T04:38:03;99621.72;;;9.36;100.00
79415;BME280;68864;44.972;19.612;2023-12-14T04:40:32;99649.53;;;9.36;100.00
79415;BME280;68864;44.972;19.612;2023-12-14T04:42:59;99670.91;;;9.32;100.00
79415;BME280;68864;44.972;19.612;2023-12-14T04:45:26;99687.28;;;9.37;100.00
79415;BME280;68864;44.972;19.612;2023-12-14T04:47:53;99663.44;;;9.36;100.00
79415;BME280;68864;44.972;19.612;2023-12-14T04:50:20;99683.44;;;9.49;100.00
79415;BME280;68864;44.972;19.612;2023-12-14T04:52:46;99686.63;;;9.51;100.00
79415;BME280;68864;44.972;19.612;2023-12-14T04:55:14;99685.38;;;9.45;100.00
79415;BME280;68864;44.972;19.612;2023-12-14T04:57:42;99706.44;;;9.46;100.00
79415;BME280;68864;44.972;19.612;2023-12-14T05:00:10;99709.94;;;9.39;100.00
79415;BME280;68864;44.972;19.612;2023-12-14T05:02:37;99706.34;;;9.39;100.00
79415;BME280;68864;44.972;19.612;2023-12-14T05:05:04;99686.13;;;9.42;100.00
79415;BME280;68864;44.972;19.612;2023-12-14T05:07:31;99697.50;;;9.30;100.00
79415;BME280;68864;44.972;19.612;2023-12-14T05:09:58;99705.84;;;9.30;100.00
79415;BME280;68864;44.972;19.612;2023-12-14T05:12:25;99721.81;;;9.36;100.00
79415;BME280;68864;44.972;19.612;2023-12-14T05:14:55;99728.19;;;9.37;100.00
79415;BME280;68864;44.972;19.612;2023-12-14T05:17:22;99729.41;;;9.39;100.00
79415;BME280;68864;44.972;19.612;2023-12-14T05:19:48;99727.06;;;9.41;100.00
79415;BME280;68864;44.972;19.612;2023-12-14T05:22:15;99737.00;;;9.42;100.00
79415;BME280;68864;44.972;19.612;2023-12-14T05:24:46;99734.25;;;9.46;100.00
79415;BME280;68864;44.972;19.612;2023-12-14T05:27:13;99742.59;;;9.46;100.00
79415;BME280;68864;44.972;19.612;2023-12-14T05:29:40;99737.03;;;9.46;100.00
79415;BME280;68864;44.972;19.612;2023-12-14T05:32:08;99735.44;;;9.45;100.00
79415;BME280;68864;44.972;19.612;2023-12-14T05:34:35;99734.22;;;9.42;100.00
79415;BME280;68864;44.972;19.612;2023-12-14T05:37:02;99736.19;;;9.42;100.00
79415;BME280;68864;44.972;19.612;2023-12-14T05:39:29;99742.56;;;9.42;100.00
79415;BME280;68864;44.972;19.612;2023-12-14T05:41:56;99755.69;;;9.45;100.00
79415;BME280;68864;44.972;19.612;2023-12-14T05:44:23;99753.72;;;9.46;100.00
79415;BME280;68864;44.972;19.612;2023-12-14T05:46:50;99750.00;;;9.35;100.00
79415;BME280;68864;44.972;19.612;2023-12-14T05:49:18;99752.09;;;9.41;100.00
79415;BME280;68864;44.972;19.612;2023-12-14T05:51:45;99765.63;;;9.43;100.00
79415;BME280;68864;44.972;19.612;2023-12-14T05:54:12;99779.56;;;9.46;100.00
79415;BME280;68864;44.972;19.612;2023-12-14T05:56:39;99783.94;;;9.47;100.00
79415;BME280;68864;44.972;19.612;2023-12-14T05:59:06;99789.38;;;9.37;100.00
79415;BME280;68864;44.972;19.612;2023-12-14T06:01:33;99774.38;;;9.45;100.00
79415;BME280;68864;44.972;19.612;2023-12-14T06:03:59;99763.09;;;9.34;100.00
79415;BME280;68864;44.972;19.612;2023-12-14T06:06:29;99774.38;;;9.45;100.00
79415;BME280;68864;44.972;19.612;2023-12-14T06:08:56;99772.81;;;9.47;100.00
79415;BME280;68864;44.972;19.612;2023-12-14T06:11:23;99780.84;;;9.52;100.00
79415;BME280;68864;44.972;19.612;2023-12-14T06:13:49;99790.78;;;9.53;100.00
79415;BME280;68864;44.972;19.612;2023-12-14T06:16:16;99790.34;;;9.51;100.00
79415;BME280;68864;44.972;19.612;2023-12-14T06:18:43;99801.97;;;9.57;100.00
79415;BME280;68864;44.972;19.612;2023-12-14T06:21:11;99805.59;;;9.61;100.00
79415;BME280;68864;44.972;19.612;2023-12-14T06:23:40;99797.59;;;9.56;100.00
79415;BME280;68864;44.972;19.612;2023-12-14T06:26:07;99805.13;;;9.55;100.00
79415;BME280;68864;44.972;19.612;2023-12-14T06:28:34;99806.31;;;9.54;100.00
79415;BME280;68864;44.972;19.612;2023-12-14T06:31:01;99813.88;;;9.57;100.00
79415;BME280;68864;44.972;19.612;2023-12-14T06:33:28;99818.28;;;9.58;100.00
79415;BME280;68864;44.972;19.612;2023-12-14T06:35:55;99807.81;;;9.48;100.00
79415;BME280;68864;44.972;19.612;2023-12-14T06:38:21;99823.09;;;9.62;100.00
79415;BME280;68864;44.972;19.612;2023-12-14T06:40:50;99827.50;;;9.63;100.00
79415;BME280;68864;44.972;19.612;2023-12-14T06:43:17;99821.97;;;9.66;100.00
79415;BME280;68864;44.972;19.612;2023-12-14T06:45:44;99839.00;;;9.61;100.00
79415;BME280;68864;44.972;19.612;2023-12-14T06:48:11;99847.81;;;9.67;100.00
79415;BME280;68864;44.972;19.612;2023-12-14T06:50:38;99867.41;;;9.74;100.00
79415;BME280;68864;44.972;19.612;2023-12-14T06:53:05;99876.59;;;9.78;100.00
79415;BME280;68864;44.972;19.612;2023-12-14T06:55:32;99892.66;;;9.88;100.00
79415;BME280;68864;44.972;19.612;2023-12-14T06:58:00;99903.09;;;9.94;100.00
79415;BME280;68864;44.972;19.612;2023-12-14T07:00:27;99904.34;;;9.97;100.00
79415;BME280;68864;44.972;19.612;2023-12-14T07:02:54;99889.06;;;9.87;100.00
79415;BME280;68864;44.972;19.612;2023-12-14T07:05:21;99887.81;;;9.85;100.00
79415;BME280;68864;44.972;19.612;2023-12-14T07:07:48;99902.19;;;9.87;100.00
79415;BME280;68864;44.972;19.612;2023-12-14T07:10:15;99905.78;;;9.87;100.00
79415;BME280;68864;44.972;19.612;2023-12-14T07:12:42;99912.47;;;9.83;100.00
79415;BME280;68864;44.972;19.612;2023-12-14T07:15:10;99918.88;;;9.87;100.00
79415;BME280;68864;44.972;19.612;2023-12-14T07:17:37;99912.59;;;9.90;100.00
79415;BME280;68864;44.972;19.612;2023-12-14T07:20:06;99913.31;;;9.87;100.00
79415;BME280;68864;44.972;19.612;2023-12-14T07:22:33;99918.44;;;9.85;100.00
79415;BME280;68864;44.972;19.612;2023-12-14T07:25:00;99931.63;;;9.88;100.00
79415;BME280;68864;44.972;19.612;2023-12-14T07:27:27;99926.44;;;9.86;100.00
79415;BME280;68864;44.972;19.612;2023-12-14T07:29:54;99929.22;;;9.86;100.00
79415;BME280;68864;44.972;19.612;2023-12-14T07:32:22;99914.94;;;9.88;100.00
79415;BME280;68864;44.972;19.612;2023-12-14T07:34:49;99927.31;;;9.90;100.00
79415;BME280;68864;44.972;19.612;2023-12-14T07:37:16;99934.16;;;9.96;100.00
79415;BME280;68864;44.972;19.612;2023-12-14T07:39:43;99943.34;;;10.01;100.00
79415;BME280;68864;44.972;19.612;2023-12-14T07:42:10;99946.13;;;10.01;100.00
79415;BME280;68864;44.972;19.612;2023-12-14T07:44:38;99940.19;;;10.02;100.00
79415;BME280;68864;44.972;19.612;2023-12-14T07:47:06;99940.34;;;10.13;100.00
79415;BME280;68864;44.972;19.612;2023-12-14T07:49:34;99947.16;;;10.15;100.00
79415;BME280;68864;44.972;19.612;2023-12-14T07:52:01;99937.25;;;10.18;100.00
79415;BME280;68864;44.972;19.612;2023-12-14T07:54:28;99954.75;;;10.18;100.00
79415;BME280;68864;44.972;19.612;2023-12-14T07:56:55;99957.63;;;10.22;100.00
79415;BME280;68864;44.972;19.612;2023-12-14T07:59:22;99968.38;;;10.23;99.83
79415;BME280;68864;44.972;19.612;2023-12-14T08:01:49;99961.56;;;10.21;99.90
79415;BME280;68864;44.972;19.612;2023-12-14T08:04:16;99975.13;;;10.22;99.47
79415;BME280;68864;44.972;19.612;2023-12-14T08:06:44;99980.31;;;10.24;99.67
79415;BME280;68864;44.972;19.612;2023-12-14T08:09:11;99991.16;;;10.29;100.00
79415;BME280;68864;44.972;19.612;2023-12-14T08:11:38;99998.31;;;10.30;99.43
79415;BME280;68864;44.972;19.612;2023-12-14T08:14:05;100000.72;;;10.31;99.64
79415;BME280;68864;44.972;19.612;2023-12-14T08:16:32;100011.91;;;10.35;99.86
79415;BME280;68864;44.972;19.612;2023-12-14T08:18:59;100023.97;;;10.43;100.00
79415;BME280;68864;44.972;19.612;2023-12-14T08:21:26;100024.00;;;10.46;99.43
79415;BME280;68864;44.972;19.612;2023-12-14T08:23:54;100028.41;;;10.47;98.76
79415;BME280;68864;44.972;19.612;2023-12-14T08:26:21;100026.44;;;10.48;98.37
79415;BME280;68864;44.972;19.612;2023-12-14T08:28:48;100040.03;;;10.53;98.25
79415;BME280;68864;44.972;19.612;2023-12-14T08:31:15;100029.69;;;10.53;97.80
79415;BME280;68864;44.972;19.612;2023-12-14T08:33:42;100036.06;;;10.54;97.70
79415;BME280;68864;44.972;19.612;2023-12-14T08:36:09;100038.84;;;10.54;97.44
79415;BME280;68864;44.972;19.612;2023-12-14T08:38:36;100044.44;;;10.54;97.44
79415;BME280;68864;44.972;19.612;2023-12-14T08:41:05;100060.81;;;10.59;97.04
79415;BME280;68864;44.972;19.612;2023-12-14T08:43:32;100062.78;;;10.58;97.04
79415;BME280;68864;44.972;19.612;2023-12-14T08:45:59;100061.69;;;10.63;96.90
79415;BME280;68864;44.972;19.612;2023-12-14T08:48:26;100068.09;;;10.67;96.67
79415;BME280;68864;44.972;19.612;2023-12-14T08:50:53;100064.94;;;10.68;96.26
79415;BME280;68864;44.972;19.612;2023-12-14T08:53:20;100065.34;;;10.70;96.31
79415;BME280;68864;44.972;19.612;2023-12-14T08:55:47;100073.31;;;10.68;96.37
79415;BME280;68864;44.972;19.612;2023-12-14T08:58:16;100067.38;;;10.70;96.26
79415;BME280;68864;44.972;19.612;2023-12-14T09:00:43;100065.44;;;10.77;96.03
79415;BME280;68864;44.972;19.612;2023-12-14T09:03:10;100076.22;;;10.79;95.65
79415;BME280;68864;44.972;19.612;2023-12-14T09:05:36;100076.81;;;10.92;95.10
79415;BME280;68864;44.972;19.612;2023-12-14T09:08:07;100077.28;;;10.97;94.35
79415;BME280;68864;44.972;19.612;2023-12-14T09:10:34;100074.91;;;10.99;94.33
79415;BME280;68864;44.972;19.612;2023-12-14T09:13:01;100080.97;;;11.05;93.87
79415;BME280;68864;44.972;19.612;2023-12-14T09:15:31;100082.31;;;11.18;93.60
79415;BME280;68864;44.972;19.612;2023-12-14T09:17:58;100090.50;;;11.34;93.21
79415;BME280;68864;44.972;19.612;2023-12-14T09:20:25;100098.22;;;11.47;92.32
79415;BME280;68864;44.972;19.612;2023-12-14T09:22:52;100101.84;;;11.51;92.03
79415;BME280;68864;44.972;19.612;2023-12-14T09:25:19;100092.66;;;11.51;91.26
79415;BME280;68864;44.972;19.612;2023-12-14T09:27:45;100097.03;;;11.48;91.48
79415;BME280;68864;44.972;19.612;2023-12-14T09:30:13;100089.13;;;11.54;90.91
79415;BME280;68864;44.972;19.612;2023-12-14T09:32:42;100095.72;;;11.39;91.04
79415;BME280;68864;44.972;19.612;2023-12-14T09:35:09;100091.75;;;11.40;91.97
79415;BME280;68864;44.972;19.612;2023-12-14T09:37:36;100089.78;;;11.44;91.47
79415;BME280;68864;44.972;19.612;2023-12-14T09:40:03;100087.06;;;11.47;91.46
79415;BME280;68864;44.972;19.612;2023-12-14T09:42:37;100081.19;;;11.56;91.38
79415;BME280;68864;44.972;19.612;2023-12-14T09:45:06;100080.84;;;11.65;90.79
79415;BME280;68864;44.972;19.612;2023-12-14T09:47:34;100077.06;;;11.80;90.29
79415;BME280;68864;44.972;19.612;2023-12-14T09:50:02;100090.00;;;11.99;89.20
79415;BME280;68864;44.972;19.612;2023-12-14T09:52:30;100076.16;;;12.09;89.06
79415;BME280;68864;44.972;19.612;2023-12-14T09:54:58;100086.66;;;12.23;88.42
79415;BME280;68864;44.972;19.612;2023-12-14T09:57:25;100083.00;;;12.19;88.51
79415;BME280;68864;44.972;19.612;2023-12-14T09:59:52;100086.13;;;12.10;88.12
79415;BME280;68864;44.972;19.612;2023-12-14T10:02:19;100098.03;;;12.04;88.56
79415;BME280;68864;44.972;19.612;2023-12-14T10:04:50;100103.97;;;11.99;88.29
79415;BME280;68864;44.972;19.612;2023-12-14T10:07:19;100111.09;;;11.92;89.04
79415;BME280;68864;44.972;19.612;2023-12-14T10:09:47;100107.44;;;11.85;89.32
79415;BME280;68864;44.972;19.612;2023-12-14T10:12:15;100106.88;;;11.72;89.67
79415;BME280;68864;44.972;19.612;2023-12-14T10:14:42;100120.03;;;11.72;90.19
79415;BME280;68864;44.972;19.612;2023-12-14T10:17:19;100129.84;;;11.59;89.52
79415;BME280;68864;44.972;19.612;2023-12-14T10:19:47;100125.13;;;11.63;90.23
79415;BME280;68864;44.972;19.612;2023-12-14T10:22:15;100121.19;;;11.67;89.64
79415;BME280;68864;44.972;19.612;2023-12-14T10:24:44;100130.34;;;11.68;89.33
79415;BME280;68864;44.972;19.612;2023-12-14T10:27:12;100131.50;;;11.63;90.09
79415;BME280;68864;44.972;19.612;2023-12-14T10:29:41;100126.72;;;11.64;89.92
79415;BME280;68864;44.972;19.612;2023-12-14T10:32:10;100135.59;;;11.73;89.51
79415;BME280;68864;44.972;19.612;2023-12-14T10:34:37;100130.66;;;11.92;88.64
79415;BME280;68864;44.972;19.612;2023-12-14T10:37:05;100123.44;;;11.91;88.05
79415;BME280;68864;44.972;19.612;2023-12-14T10:39:33;100135.47;;;11.96;87.85
79415;BME280;68864;44.972;19.612;2023-12-14T10:42:04;100134.69;;;11.99;87.46
79415;BME280;68864;44.972;19.612;2023-12-14T10:44:35;100139.66;;;12.16;86.34
79415;BME280;68864;44.972;19.612;2023-12-14T10:47:03;100134.81;;;12.09;86.92
79415;BME280;68864;44.972;19.612;2023-12-14T10:49:31;100133.97;;;12.05;86.92
79415;BME280;68864;44.972;19.612;2023-12-14T10:52:00;100134.31;;;12.00;87.33
79415;BME280;68864;44.972;19.612;2023-12-14T10:54:31;100127.91;;;11.96;87.45
79415;BME280;68864;44.972;19.612;2023-12-14T10:57:03;100132.75;;;12.03;87.65
79415;BME280;68864;44.972;19.612;2023-12-14T10:59:31;100129.91;;;11.99;87.55
79415;BME280;68864;44.972;19.612;2023-12-14T11:01:58;100133.50;;;11.96;87.73
79415;BME280;68864;44.972;19.612;2023-12-14T11:04:26;100131.06;;;11.94;87.64
79415;BME280;68864;44.972;19.612;2023-12-14T11:06:53;100138.66;;;11.98;87.97
79415;BME280;68864;44.972;19.612;2023-12-14T11:09:22;100142.25;;;11.94;87.71
79415;BME280;68864;44.972;19.612;2023-12-14T11:11:55;100152.63;;;11.98;87.55
79415;BME280;68864;44.972;19.612;2023-12-14T11:14:27;100149.09;;;12.01;87.87
79415;BME280;68864;44.972;19.612;2023-12-14T11:16:55;100139.47;;;11.98;87.76
79415;BME280;68864;44.972;19.612;2023-12-14T11:19:27;100145.56;;;12.07;88.32
79415;BME280;68864;44.972;19.612;2023-12-14T11:22:12;100155.50;;;12.05;88.15
79415;BME280;68864;44.972;19.612;2023-12-14T11:24:51;100148.25;;;11.97;88.27
79415;BME280;68864;44.972;19.612;2023-12-14T11:27:20;100147.75;;;11.87;88.93
79415;BME280;68864;44.972;19.612;2023-12-14T11:29:54;100164.09;;;11.85;89.16
79415;BME280;68864;44.972;19.612;2023-12-14T11:32:21;100165.25;;;11.84;88.98
79415;BME280;68864;44.972;19.612;2023-12-14T11:34:48;100162.47;;;11.84;89.30
79415;BME280;68864;44.972;19.612;2023-12-14T11:37:15;100165.31;;;11.88;89.42
79415;BME280;68864;44.972;19.612;2023-12-14T11:39:42;100166.94;;;11.89;89.28
79415;BME280;68864;44.972;19.612;2023-12-14T11:42:09;100135.69;;;11.80;89.26
79415;BME280;68864;44.972;19.612;2023-12-14T11:44:37;100166.78;;;11.78;89.54
79415;BME280;68864;44.972;19.612;2023-12-14T11:47:05;100158.72;;;11.70;89.83
79415;BME280;68864;44.972;19.612;2023-12-14T11:49:34;100164.19;;;11.63;90.13
79415;BME280;68864;44.972;19.612;2023-12-14T11:52:02;100171.78;;;11.62;89.46
79415;BME280;68864;44.972;19.612;2023-12-14T11:54:30;100170.53;;;11.60;89.17
79415;BME280;68864;44.972;19.612;2023-12-14T11:56:57;100169.25;;;11.53;89.48
79415;BME280;68864;44.972;19.612;2023-12-14T11:59:26;100171.31;;;11.57;89.47
79415;BME280;68864;44.972;19.612;2023-12-14T12:01:54;100173.69;;;11.58;89.28
79415;BME280;68864;44.972;19.612;2023-12-14T12:04:23;100170.53;;;11.60;89.24
79415;BME280;68864;44.972;19.612;2023-12-14T12:06:58;100168.19;;;11.65;88.48
79415;BME280;68864;44.972;19.612;2023-12-14T12:09:36;100167.47;;;11.68;87.55
79415;BME280;68864;44.972;19.612;2023-12-14T12:12:07;100171.84;;;11.69;87.62
79415;BME280;68864;44.972;19.612;2023-12-14T12:14:35;100167.47;;;11.72;87.89
79415;BME280;68864;44.972;19.612;2023-12-14T12:17:02;100164.91;;;11.56;87.78
79415;BME280;68864;44.972;19.612;2023-12-14T12:19:31;100167.16;;;11.77;87.33
79415;BME280;68864;44.972;19.612;2023-12-14T12:21:58;100172.47;;;11.85;87.28
79415;BME280;68864;44.972;19.612;2023-12-14T12:24:25;100177.38;;;11.96;86.24
79415;BME280;68864;44.972;19.612;2023-12-14T12:26:52;100177.41;;;11.99;86.37
79415;BME280;68864;44.972;19.612;2023-12-14T12:29:19;100173.03;;;12.02;85.64
79415;BME280;68864;44.972;19.612;2023-12-14T12:31:46;100186.22;;;12.01;85.45
79415;BME280;68864;44.972;19.612;2023-12-14T12:34:13;100183.34;;;11.98;85.91
79415;BME280;68864;44.972;19.612;2023-12-14T12:36:42;100184.50;;;11.93;85.85
79415;BME280;68864;44.972;19.612;2023-12-14T12:39:09;100190.84;;;11.90;86.06
79415;BME280;68864;44.972;19.612;2023-12-14T12:41:36;100192.00;;;11.85;86.32
79415;BME280;68864;44.972;19.612;2023-12-14T12:44:04;100202.72;;;11.80;86.33
79415;BME280;68864;44.972;19.612;2023-12-14T12:46:33;100201.44;;;11.74;86.42
79415;BME280;68864;44.972;19.612;2023-12-14T12:49:01;100197.00;;;11.73;86.84
79415;BME280;68864;44.972;19.612;2023-12-14T12:51:28;100196.97;;;11.69;87.17
79415;BME280;68864;44.972;19.612;2023-12-14T12:53:58;100193.75;;;11.67;86.96